Time;durP1;ratioP1;P1;durP2;ratioP2;P2;SDS_P1;SDS_P2;PMS_P1;PMS_P2;Temp;Humidity;BMP_temperature;BMP_pressure;BME280_temperature;BME280_humidity;BME280_pressure;Samples;Min_cycle;Max_cycle;Signal;HPM_P1;HPM_P2
2023/05/31 00:08:49;;;;;;;1999.90;999.90;;;15.80;99.90;;;;;;6632343;89;20226;-78
2023/05/31 00:18:50;;;;;;;1999.90;999.90;;;15.60;99.90;;;;;;6636352;89;20298;-79
2023/05/31 00:28:50;;;;;;;1999.90;999.90;;;15.50;99.90;;;;;;6646788;88;20693;-79
2023/05/31 00:38:51;;;;;;;1999.90;999.90;;;15.40;99.90;;;;;;6633451;89;20691;-78
2023/05/31 00:48:52;;;;;;;1999.90;999.90;;;15.40;99.90;;;;;;6671214;88;20180;-79
2023/05/31 00:58:56;;;;;;;1999.90;999.90;;;15.30;99.90;;;;;;6662433;88;20254;-79
2023/05/31 01:08:56;;;;;;;1999.90;999.90;;;15.10;99.90;;;;;;6666305;88;20176;-79
2023/05/31 01:19:05;;;;;;;1999.90;999.90;;;15.10;99.90;;;;;;6670318;88;20203;-79
2023/05/31 01:29:11;;;;;;;1999.90;999.90;;;15.00;99.90;;;;;;6681671;88;20189;-79
2023/05/31 01:39:13;;;;;;;1999.90;999.90;;;14.90;99.90;;;;;;6694730;88;20181;-79
2023/05/31 01:49:14;;;;;;;1999.90;999.90;;;14.80;99.90;;;;;;6686220;88;20342;-80
2023/05/31 01:59:55;;;;;;;1999.90;999.90;;;14.60;99.90;;;;;;6699169;77;20190;-88
2023/05/31 02:09:56;;;;;;;1999.90;999.90;;;14.60;99.90;;;;;;6769097;88;20254;-87
2023/05/31 02:19:56;;;;;;;1999.90;999.90;;;14.50;99.90;;;;;;6748586;88;20173;-85
2023/05/31 02:29:57;;;;;;;1999.90;999.90;;;14.50;99.90;;;;;;6697191;88;20187;-86
2023/05/31 02:39:57;;;;;;;1999.90;999.90;;;14.30;99.90;;;;;;6697125;88;20289;-86
2023/05/31 02:49:58;;;;;;;1999.90;999.90;;;14.20;99.90;;;;;;6706845;88;20319;-86
2023/05/31 03:00:10;;;;;;;1999.90;999.90;;;14.10;99.90;;;;;;6727585;88;20475;-85
2023/05/31 03:10:11;;;;;;;1999.90;999.90;;;14.00;99.90;;;;;;6713954;88;20212;-85
2023/05/31 03:20:11;;;;;;;1999.90;999.90;;;13.80;99.90;;;;;;6697094;88;20197;-84
2023/05/31 03:30:12;;;;;;;1999.90;999.90;;;13.70;99.90;;;;;;6679692;89;20203;-85
2023/05/31 03:40:13;;;;;;;1999.90;999.90;;;13.70;99.90;;;;;;6677537;89;20211;-84
2023/05/31 03:50:15;;;;;;;1999.90;999.90;;;13.50;99.90;;;;;;6720621;88;20269;-85
2023/05/31 04:00:16;;;;;;;1999.90;999.90;;;13.50;99.90;;;;;;6726049;88;20153;-86
2023/05/31 04:10:16;;;;;;;1999.90;999.90;;;13.30;99.90;;;;;;6733099;88;20883;-85
2023/05/31 04:20:18;;;;;;;1999.90;999.90;;;13.10;99.90;;;;;;6733049;88;20196;-85
2023/05/31 04:30:18;;;;;;;1999.90;999.90;;;13.10;99.90;;;;;;6729513;88;20202;-86
2023/05/31 04:40:20;;;;;;;1999.90;999.90;;;13.30;99.90;;;;;;6732773;88;20176;-85
2023/05/31 05:00:32;;;;;;;1999.90;999.90;;;13.70;99.90;;;;;;6702860;87;20959;-85
2023/05/31 05:10:32;;;;;;;1999.90;999.90;;;13.80;99.90;;;;;;6766600;87;21032;-86
2023/05/31 05:20:33;;;;;;;1999.90;999.90;;;13.90;99.90;;;;;;6701523;88;20159;-85
2023/05/31 05:30:33;;;;;;;1999.90;999.90;;;14.10;99.90;;;;;;6697980;88;20150;-85
2023/05/31 06:21:46;;;;;;;1999.90;999.90;;;16.80;99.90;;;;;;6713160;87;20164;-85
2023/05/31 06:31:46;;;;;;;1999.90;999.90;;;17.60;99.90;;;;;;6713684;87;20850;-83
2023/05/31 06:41:47;;;;;;;1999.90;999.90;;;18.10;99.90;;;;;;6713660;87;20163;-85
2023/05/31 06:51:48;;;;;;;1999.90;999.90;;;18.70;99.90;;;;;;6713274;87;20386;-84
2023/05/31 07:01:48;;;;;;;1999.90;999.90;;;19.30;99.90;;;;;;6712961;87;20327;-84
2023/05/31 07:11:49;;;;;;;1999.90;999.90;;;20.20;99.90;;;;;;6782145;87;20192;-84
2023/05/31 07:21:50;;;;;;;1999.90;999.90;;;20.90;99.90;;;;;;6781948;87;20266;-85
2023/05/31 07:31:50;;;;;;;1999.90;999.90;;;21.70;99.90;;;;;;6747119;88;20187;-84
2023/05/31 07:41:51;;;;;;;1999.90;999.90;;;22.20;99.90;;;;;;6644965;88;20335;-85
2023/05/31 07:51:52;;;;;;;1999.90;999.90;;;22.50;99.10;;;;;;6626281;88;20178;-83
2023/05/31 08:12:54;;;;;;;1999.90;999.90;;;23.70;97.40;;;;;;6667103;88;20182;-79
2023/05/31 08:22:55;;;;;;;1999.90;999.90;;;24.50;95.30;;;;;;6650518;88;20243;-78
2023/05/31 08:32:57;;;;;;;1999.90;999.90;;;25.10;94.30;;;;;;6657118;88;20172;-78
2023/05/31 08:43:02;;;;;;;1999.90;999.90;;;24.70;92.70;;;;;;6661107;89;20293;-78
2023/05/31 08:53:04;;;;;;;1999.90;999.90;;;25.30;93.00;;;;;;6677333;88;20217;-79
2023/05/31 09:03:06;;;;;;;1999.90;999.90;;;26.30;91.20;;;;;;6717552;88;20207;-79
2023/05/31 09:13:07;;;;;;;1999.90;999.90;;;26.50;88.90;;;;;;6657742;88;20335;-79
2023/05/31 09:23:09;;;;;;;1999.90;999.90;;;26.70;84.20;;;;;;6660787;88;20540;-79
2023/05/31 09:33:10;;;;;;;1999.90;999.90;;;26.40;85.00;;;;;;6654034;89;20372;-79
2023/05/31 09:43:15;;;;;;;1999.90;999.90;;;26.30;84.20;;;;;;6651798;88;20212;-80
2023/05/31 09:53:18;;;;;;;1999.90;999.90;;;27.30;80.40;;;;;;6647433;89;20219;-79
2023/05/31 10:03:19;;;;;;;1999.90;999.90;;;27.70;78.60;;;;;;6660704;89;20240;-80
2023/05/31 10:13:23;;;;;;;1999.90;999.90;;;28.30;74.10;;;;;;6658738;88;20198;-79
2023/05/31 10:23:25;;;;;;;1999.90;999.90;;;28.40;71.10;;;;;;6673423;88;20181;-78
2023/05/31 10:33:30;;;;;;;1999.90;999.90;;;27.90;70.70;;;;;;6655033;89;20204;-79
2023/05/31 10:43:42;;;;;;;1999.90;999.90;;;29.20;72.00;;;;;;6671847;88;20201;-79
2023/05/31 10:53:47;;;;;;;1999.90;999.90;;;29.90;70.60;;;;;;6664850;88;20206;-79
2023/05/31 11:03:52;;;;;;;1999.90;999.90;;;31.10;67.80;;;;;;6672889;88;20278;-79
2023/05/31 11:14:06;;;;;;;1999.90;999.90;;;29.70;67.00;;;;;;6670830;88;20242;-79
2023/05/31 11:24:06;;;;;;;1999.90;999.90;;;29.50;65.30;;;;;;6666322;88;20300;-80
2023/05/31 11:34:34;;;;;;;1999.90;999.90;;;30.80;64.80;;;;;;6660198;88;20181;-79
2023/05/31 11:44:40;;;;;;;1999.90;999.90;;;30.40;62.50;;;;;;6654724;88;20275;-79
2023/05/31 11:54:44;;;;;;;1999.90;999.90;;;29.50;62.80;;;;;;6659667;88;20579;-79
2023/05/31 12:04:45;;;;;;;1999.90;999.90;;;30.60;64.10;;;;;;6653209;88;20223;-78
2023/05/31 12:14:48;;;;;;;;;;;32.40;63.60;;;;;;6661220;88;20204;-78
2023/05/31 12:24:53;;;;;;;1999.90;999.90;;;33.60;62.00;;;;;;6661341;88;20406;-78
2023/05/31 12:35:03;;;;;;;1999.90;999.90;;;33.10;61.60;;;;;;6684241;88;20233;-79
2023/05/31 12:45:05;;;;;;;1999.90;999.90;;;33.20;59.40;;;;;;6664774;88;20198;-79
2023/05/31 12:55:07;;;;;;;1999.90;999.90;;;33.60;58.80;;;;;;6671183;88;20209;-79
2023/05/31 13:05:08;;;;;;;1999.90;999.90;;;33.30;58.70;;;;;;6656820;88;20189;-78
2023/05/31 13:15:10;;;;;;;1999.90;999.90;;;31.50;59.10;;;;;;6656945;88;20216;-78
2023/05/31 13:25:11;;;;;;;1999.90;999.90;;;32.80;60.10;;;;;;6662547;88;20203;-78
2023/05/31 13:35:12;;;;;;;1999.90;999.90;;;33.30;58.50;;;;;;6658504;88;20188;-80
2023/05/31 13:45:12;;;;;;;1999.90;999.90;;;33.10;58.20;;;;;;6674662;88;20180;-78
2023/05/31 13:55:13;;;;;;;1999.90;999.90;;;32.70;58.70;;;;;;6680618;78;21021;-76
2023/05/31 14:05:13;;;;;;;1999.90;999.90;;;33.30;58.30;;;;;;6743058;88;20204;-76
2023/05/31 14:15:15;;;;;;;1999.90;999.90;;;33.80;56.70;;;;;;6747077;87;20200;-76
2023/05/31 14:25:15;;;;;;;1999.90;999.90;;;32.60;58.20;;;;;;6742534;87;20745;-75
2023/05/31 14:35:17;;;;;;;1999.90;999.90;;;33.30;58.10;;;;;;6738400;88;20191;-76
2023/05/31 14:45:17;;;;;;;1999.90;999.90;;;33.40;57.40;;;;;;6746586;88;20222;-79
2023/05/31 14:55:18;;;;;;;1999.90;999.90;;;32.30;56.80;;;;;;6737864;87;20199;-78
2023/05/31 15:05:18;;;;;;;1999.90;999.90;;;32.90;56.60;;;;;;6743630;87;20320;-78
2023/05/31 15:15:19;;;;;;;1999.90;999.90;;;31.40;56.10;;;;;;6744293;88;20192;-76
2023/05/31 15:25:20;;;;;;;1999.90;999.90;;;31.80;58.20;;;;;;6746257;87;20192;-77
2023/05/31 15:35:21;;;;;;;1999.90;999.90;;;32.40;57.80;;;;;;6752647;87;20273;-76
2023/05/31 15:45:22;;;;;;;1999.90;999.90;;;30.80;56.80;;;;;;6749512;88;20199;-77
2023/05/31 15:55:22;;;;;;;1999.90;999.90;;;31.70;57.30;;;;;;6754216;87;20217;-77
2023/05/31 16:05:23;;;;;;;1999.90;999.90;;;31.80;58.60;;;;;;6752307;88;21076;-78
2023/05/31 16:15:23;;;;;;;1999.90;999.90;;;31.40;58.70;;;;;;6741545;88;20205;-77
2023/05/31 16:25:24;;;;;;;1999.90;999.90;;;31.40;59.20;;;;;;6740560;88;20239;-76
2023/05/31 16:35:24;;;;;;;1999.90;999.90;;;31.00;60.30;;;;;;6739553;87;20246;-78
2023/05/31 16:45:25;;;;;;;1999.90;999.90;;;30.60;60.20;;;;;;6745778;88;20201;-77
2023/05/31 16:55:26;;;;;;;1999.90;999.90;;;30.20;60.70;;;;;;6735420;87;20181;-76
2023/05/31 17:05:26;;;;;;;1999.90;999.90;;;29.40;60.70;;;;;;6745516;88;20237;-79
2023/05/31 17:15:27;;;;;;;1999.90;999.90;;;29.20;62.40;;;;;;6745122;87;20224;-76
2023/05/31 17:25:27;;;;;;;1999.90;999.90;;;29.40;64.10;;;;;;6747022;88;20188;-78
2023/05/31 17:35:28;;;;;;;1999.90;999.90;;;29.10;64.10;;;;;;6745160;87;20207;-77
2023/05/31 17:45:29;;;;;;;1999.90;999.90;;;28.50;65.70;;;;;;6748652;87;20279;-77
2023/05/31 17:55:30;;;;;;;1999.90;999.90;;;27.90;66.50;;;;;;6741137;88;20251;-77
2023/05/31 18:05:31;;;;;;;1999.90;999.90;;;26.90;67.10;;;;;;6751630;87;20176;-76
2023/05/31 18:15:31;;;;;;;1999.90;999.90;;;26.40;68.60;;;;;;6743726;87;20207;-77
2023/05/31 18:25:32;;;;;;;1999.90;999.90;;;26.20;70.90;;;;;;6741160;88;20225;-78
2023/05/31 18:35:32;;;;;;;1999.90;999.90;;;25.80;72.00;;;;;;6746401;87;20874;-77
2023/05/31 18:45:33;;;;;;;1999.90;999.90;;;25.40;72.80;;;;;;6740227;88;20318;-79
2023/05/31 18:55:33;;;;;;;1999.90;999.90;;;25.00;73.10;;;;;;6746989;87;20270;-77
2023/05/31 19:05:34;;;;;;;1999.90;999.90;;;24.70;73.30;;;;;;6750032;88;20718;-78
2023/05/31 19:15:34;;;;;;;1999.90;999.90;;;24.40;73.70;;;;;;6747585;87;20663;-77
2023/05/31 19:25:35;;;;;;;1999.90;999.90;;;24.00;74.30;;;;;;6725459;88;20612;-78
2023/05/31 19:35:35;;;;;;;1999.90;999.90;;;23.80;75.10;;;;;;6738545;88;20224;-76
2023/05/31 19:45:36;;;;;;;1999.90;999.90;;;23.40;76.40;;;;;;6748696;87;20733;-78
2023/05/31 19:55:57;;;;;;;1999.90;999.90;;;23.10;77.70;;;;;;6744063;87;20199;-78
2023/05/31 20:05:58;;;;;;;1999.90;999.90;;;22.80;79.20;;;;;;6763815;87;20222;-84
2023/05/31 20:15:59;;;;;;;1999.90;999.90;;;22.50;80.40;;;;;;6742901;88;20192;-83
2023/05/31 20:26:00;;;;;;;1999.90;999.90;;;22.30;81.40;;;;;;6742234;88;20264;-83
2023/05/31 20:36:00;;;;;;;1999.90;999.90;;;22.20;82.10;;;;;;6741976;88;20174;-83
2023/05/31 20:46:01;;;;;;;1999.90;999.90;;;21.90;83.00;;;;;;6747716;88;20197;-81
2023/05/31 20:56:01;;;;;;;1999.90;999.90;;;21.70;84.10;;;;;;6748089;88;20303;-82
2023/05/31 21:06:02;;;;;;;1999.90;999.90;;;21.40;84.80;;;;;;6738939;88;20198;-81
2023/05/31 21:16:03;;;;;;;1999.90;999.90;;;21.20;85.80;;;;;;6744523;88;20172;-82
2023/05/31 21:26:03;;;;;;;1999.90;999.90;;;20.90;87.30;;;;;;6739810;88;20189;-82
2023/05/31 21:36:06;;;;;;;1999.90;999.90;;;20.70;88.40;;;;;;6747758;88;20186;-83
2023/05/31 21:46:10;;;;;;;1999.90;999.90;;;20.40;89.10;;;;;;6749781;88;20284;-82
2023/05/31 21:56:10;;;;;;;1999.90;999.90;;;20.20;90.30;;;;;;6715061;88;20221;-83
2023/05/31 22:06:11;;;;;;;1999.90;999.90;;;19.90;91.30;;;;;;6709246;88;20229;-82
2023/05/31 22:16:16;;;;;;;1999.90;999.90;;;19.70;91.90;;;;;;6742435;88;20193;-83
2023/05/31 22:26:19;;;;;;;1999.90;999.90;;;19.70;92.30;;;;;;6742853;88;20267;-83
2023/05/31 22:36:21;;;;;;;1999.90;999.90;;;19.80;91.80;;;;;;6743011;88;20193;-84
2023/05/31 22:46:21;;;;;;;1999.90;999.90;;;19.60;93.40;;;;;;6748260;88;20204;-82
2023/05/31 22:56:22;;;;;;;1999.90;999.90;;;19.80;92.60;;;;;;6743565;88;20303;-83
2023/05/31 23:06:25;;;;;;;1999.90;999.90;;;19.60;92.80;;;;;;6746378;88;20181;-83
2023/05/31 23:16:27;;;;;;;1999.90;999.90;;;19.50;93.60;;;;;;6743062;88;20199;-84
2023/05/31 23:26:27;;;;;;;1999.90;999.90;;;19.10;94.50;;;;;;6743572;88;20679;-82
2023/05/31 23:36:28;;;;;;;1999.90;999.90;;;18.90;95.50;;;;;;6748175;88;20292;-82
2023/05/31 23:46:29;;;;;;;1999.90;999.90;;;18.80;96.20;;;;;;6747243;88;20193;-83
2023/05/31 23:56:30;;;;;;;1999.90;999.90;;;18.60;97.40;;;;;;6742793;88;20189;-82
